Aviation Digital Data Service (ADDS)

Output produced by METARs form (2114 UTC 20 November 2017)
found at http://www.aviationweather.gov/adds/metars/
 
KDLH 202055Z 16009KT 10SM SCT120 01/M02 A2934 RMK AO2 SLP954 T00061022 56034